Panther Creek, Illinois
Current Conditions -  °F | °C
As of 2:55 AM on Thursday 23 Oct 2014 (Local Time) from KIJX Reporting Station
Clear Clear  
Wind Chill: 42°   Ceiling: Unl
Heat Index: 44°   Visibility: 10mi
Dew Point: 38°   Wind: 5mph
Humidity: 81%   Direction: 140°SE
Pressure: 30.2"   Gusts: NA
Location:  40.0289°N, 90.1364°W
Report Text: KIJX 230755Z AUTO 14004KT 10SM CLR 07/04 A3020 RMK AO2 T00670036
Loading
Personal Weather Stations






























Interactive Weather Map
Tropical Storm Tracking
New forecast layout! Learn more

10-Day Weather Forecast

Advertisements
Track Severe Weather on mobile